createdAt,value
2023-01-20T00:00:12.182Z,53.57
2023-01-20T00:02:42.132Z,54.07
2023-01-20T00:05:12.979Z,54.37
2023-01-20T00:07:41.825Z,56.73
2023-01-20T00:10:12.058Z,59.33
2023-01-20T00:12:40.686Z,60.57
2023-01-20T00:15:11.463Z,61.40
2023-01-20T00:17:40.264Z,59.77
2023-01-20T00:20:10.299Z,61.17
2023-01-20T00:22:42.490Z,59.93
2023-01-20T00:25:12.275Z,61.27
2023-01-20T00:27:40.987Z,67.20
2023-01-20T00:30:10.991Z,66.73
2023-01-20T00:32:44.799Z,66.57
2023-01-20T00:35:14.017Z,58.80
2023-01-20T00:37:44.810Z,60.70
2023-01-20T00:40:13.867Z,63.60
2023-01-20T00:42:42.391Z,64.00
2023-01-20T00:45:12.001Z,59.63
2023-01-20T00:47:40.836Z,51.73
2023-01-20T00:50:10.286Z,59.03
2023-01-20T00:52:41.663Z,58.77
2023-01-20T00:55:12.519Z,59.67
2023-01-20T00:57:41.317Z,62.37
2023-01-20T01:00:11.074Z,63.17
2023-01-20T01:02:40.446Z,58.17
2023-01-20T01:05:09.967Z,62.70
2023-01-20T01:07:38.620Z,62.03
2023-01-20T01:10:08.043Z,61.27
2023-01-20T01:12:38.116Z,61.67
2023-01-20T01:15:07.529Z,58.00
2023-01-20T01:17:36.117Z,59.77
2023-01-20T01:20:05.300Z,61.93
2023-01-20T01:22:34.599Z,59.03
2023-01-20T01:25:07.234Z,60.67
2023-01-20T01:27:37.241Z,59.60
2023-01-20T01:30:06.587Z,60.10
2023-01-20T01:32:35.338Z,62.37
2023-01-20T01:35:05.208Z,59.00
2023-01-20T01:37:34.224Z,59.67
2023-01-20T01:40:03.089Z,58.00
2023-01-20T01:42:31.573Z,55.30
2023-01-20T01:45:27.972Z,62.30
2023-01-20T01:48:02.806Z,57.23
2023-01-20T01:50:38.174Z,59.03
2023-01-20T01:53:09.066Z,59.77
2023-01-20T01:55:42.878Z,59.43
2023-01-20T01:58:16.264Z,61.17
2023-01-20T02:00:46.730Z,67.87
2023-01-20T02:03:15.523Z,59.03
2023-01-20T02:05:46.331Z,61.03
2023-01-20T02:08:15.057Z,59.17
2023-01-20T02:10:43.522Z,57.60
2023-01-20T02:13:12.331Z,52.33
2023-01-20T02:15:51.430Z,52.87
2023-01-20T02:18:39.806Z,51.27
2023-01-20T02:21:58.917Z,52.60
2023-01-20T02:25:15.826Z,50.53
2023-01-20T02:28:19.573Z,53.87
2023-01-20T02:31:22.370Z,51.43
2023-01-20T02:33:57.148Z,48.20
2023-01-20T02:36:32.201Z,49.37
2023-01-20T02:39:04.637Z,51.90
2023-01-20T02:41:41.062Z,46.67
2023-01-20T02:44:20.808Z,55.37
2023-01-20T02:46:55.724Z,52.60
2023-01-20T02:49:31.369Z,53.50
2023-01-20T02:52:04.578Z,52.10
2023-01-20T02:54:37.960Z,51.23
2023-01-20T02:57:11.810Z,48.23
2023-01-20T02:59:46.724Z,46.50
2023-01-20T03:02:19.235Z,53.00
2023-01-20T03:04:54.212Z,51.93
2023-01-20T03:07:26.667Z,52.70
2023-01-20T03:10:03.053Z,51.80
2023-01-20T03:12:36.346Z,48.87
2023-01-20T03:15:05.457Z,51.10
2023-01-20T03:17:34.850Z,50.47
2023-01-20T03:20:08.445Z,52.13
2023-01-20T03:22:37.943Z,50.70
2023-01-20T03:25:08.776Z,49.13
2023-01-20T03:27:37.737Z,51.43
2023-01-20T03:30:13.359Z,53.27
2023-01-20T03:32:43.296Z,47.07
2023-01-20T03:35:16.601Z,56.03
2023-01-20T03:37:46.077Z,52.33
2023-01-20T03:40:16.232Z,52.80
2023-01-20T03:42:54.515Z,50.77
2023-01-20T03:45:34.107Z,51.80
2023-01-20T03:48:11.667Z,48.83
2023-01-20T03:50:48.967Z,53.23
2023-01-20T03:53:30.380Z,48.33
2023-01-20T03:56:05.419Z,55.33
2023-01-20T03:58:38.692Z,50.97
2023-01-20T04:01:18.590Z,51.27
2023-01-20T04:03:54.109Z,50.83
2023-01-20T04:06:27.944Z,48.00
2023-01-20T04:09:00.978Z,48.90
2023-01-20T04:11:29.832Z,44.60
2023-01-20T04:13:58.405Z,44.17
2023-01-20T04:16:27.893Z,43.90
2023-01-20T04:18:56.695Z,45.07
2023-01-20T04:21:34.831Z,44.57
2023-01-20T04:24:06.895Z,42.83
2023-01-20T04:26:35.450Z,47.43
2023-01-20T04:29:11.928Z,46.97
2023-01-20T04:31:41.519Z,41.80
2023-01-20T04:34:14.061Z,41.67
2023-01-20T04:36:44.327Z,42.90
2023-01-20T04:39:12.940Z,43.33
2023-01-20T04:41:41.510Z,42.50
2023-01-20T04:44:09.971Z,44.17
2023-01-20T04:46:38.441Z,43.33
2023-01-20T04:49:07.084Z,40.73
2023-01-20T04:51:35.834Z,42.07
2023-01-20T04:54:05.836Z,40.37
2023-01-20T04:56:34.381Z,38.37
2023-01-20T04:59:02.838Z,40.00
2023-01-20T05:01:31.662Z,39.43
2023-01-20T05:04:03.082Z,35.20
2023-01-20T05:06:31.679Z,32.83
2023-01-20T05:09:00.196Z,32.23
2023-01-20T05:11:31.426Z,32.93
2023-01-20T05:13:59.860Z,32.40
2023-01-20T05:16:32.095Z,33.27
2023-01-20T05:19:00.950Z,32.53
2023-01-20T05:21:29.720Z,33.73
2023-01-20T05:23:59.249Z,34.40
2023-01-20T05:26:29.635Z,33.03
2023-01-20T05:28:58.093Z,33.07
2023-01-20T05:31:26.648Z,34.73
2023-01-20T05:33:55.662Z,36.77
2023-01-20T05:36:24.180Z,35.87
2023-01-20T05:38:52.707Z,42.43
2023-01-20T05:41:21.201Z,38.67
2023-01-20T05:43:54.554Z,39.53
2023-01-20T05:46:23.270Z,50.57
2023-01-20T05:48:51.775Z,55.77
2023-01-20T05:51:20.771Z,44.20
2023-01-20T05:53:49.169Z,44.57
2023-01-20T05:56:17.661Z,40.03
2023-01-20T05:58:46.291Z,45.13
2023-01-20T06:01:16.544Z,45.10
2023-01-20T06:03:45.189Z,43.17
2023-01-20T06:06:17.340Z,42.77
2023-01-20T06:08:46.251Z,42.97
2023-01-20T06:11:15.917Z,44.53
2023-01-20T06:13:44.812Z,40.00
2023-01-20T06:16:13.417Z,43.47
2023-01-20T06:18:43.577Z,39.90
2023-01-20T06:21:14.896Z,40.63
2023-01-20T06:23:43.419Z,46.03
2023-01-20T06:26:14.823Z,47.00
2023-01-20T06:28:43.568Z,58.47
2023-01-20T06:31:14.265Z,53.63
2023-01-20T06:33:44.991Z,50.17
2023-01-20T06:36:17.082Z,48.83
2023-01-20T06:38:48.647Z,167.73
2023-01-20T06:41:17.919Z,133.93
2023-01-20T06:43:46.650Z,189.00
2023-01-20T06:46:18.912Z,118.73
2023-01-20T06:48:50.196Z,77.63
2023-01-20T06:51:21.126Z,67.03
2023-01-20T06:53:50.198Z,61.20
2023-01-20T06:56:19.175Z,65.73
2023-01-20T06:58:48.177Z,56.03
2023-01-20T07:01:20.872Z,62.40
2023-01-20T07:03:50.985Z,52.73
2023-01-20T07:06:26.346Z,59.77
2023-01-20T07:08:56.696Z,86.97
2023-01-20T07:11:27.338Z,76.83
2023-01-20T07:13:56.368Z,89.27
2023-01-20T07:16:25.160Z,72.63
2023-01-20T07:18:55.569Z,62.00
2023-01-20T07:21:26.427Z,63.47
2023-01-20T07:23:55.474Z,53.60
2023-01-20T07:26:26.656Z,48.83
2023-01-20T07:28:55.301Z,47.83
2023-01-20T07:31:26.162Z,50.10
2023-01-20T07:33:57.066Z,52.60
2023-01-20T07:36:26.477Z,50.07
2023-01-20T07:38:55.329Z,49.27
2023-01-20T07:41:24.185Z,43.93
2023-01-20T07:43:54.247Z,45.43
2023-01-20T07:46:23.427Z,49.47
2023-01-20T07:48:51.940Z,44.30
2023-01-20T07:51:21.897Z,42.10
2023-01-20T07:53:52.165Z,52.20
2023-01-20T07:56:23.354Z,47.43
2023-01-20T07:58:51.905Z,43.80
2023-01-20T08:01:25.210Z,46.30
2023-01-20T08:03:54.643Z,51.20
2023-01-20T08:06:26.745Z,52.90
2023-01-20T08:08:58.637Z,49.07
2023-01-20T08:11:27.358Z,75.50
2023-01-20T08:13:56.192Z,60.40
2023-01-20T08:16:24.865Z,52.93
2023-01-20T08:18:55.506Z,50.03
2023-01-20T08:21:28.875Z,48.33
2023-01-20T08:23:57.969Z,51.23
2023-01-20T08:26:28.016Z,51.83
2023-01-20T08:28:57.092Z,52.50
2023-01-20T08:31:26.370Z,78.20
2023-01-20T08:33:56.543Z,59.30
2023-01-20T08:36:28.721Z,54.33
2023-01-20T08:38:57.495Z,50.50
2023-01-20T08:41:28.398Z,43.30
2023-01-20T08:43:59.131Z,40.63
2023-01-20T08:46:28.844Z,40.43
2023-01-20T08:48:57.529Z,41.17
2023-01-20T08:51:30.367Z,37.47
2023-01-20T08:53:59.017Z,36.90
2023-01-20T08:56:28.466Z,37.20
2023-01-20T08:59:02.470Z,36.03
2023-01-20T09:01:36.032Z,36.50
2023-01-20T09:04:07.032Z,35.97
2023-01-20T09:06:42.766Z,34.07
2023-01-20T09:09:11.614Z,36.87
2023-01-20T09:11:41.441Z,33.63
2023-01-20T09:14:10.412Z,34.77
2023-01-20T09:16:39.146Z,34.30
2023-01-20T09:19:09.398Z,32.87
2023-01-20T09:21:37.931Z,32.87
2023-01-20T09:24:08.605Z,34.77
2023-01-20T09:26:41.718Z,33.87
2023-01-20T09:29:13.482Z,33.27
2023-01-20T09:31:45.212Z,35.17
2023-01-20T09:34:19.516Z,32.03
2023-01-20T09:36:52.361Z,33.77
2023-01-20T09:39:40.690Z,34.17
2023-01-20T09:42:43.516Z,34.90
2023-01-20T09:45:26.325Z,32.33
2023-01-20T09:48:04.804Z,32.03
2023-01-20T09:51:02.666Z,33.53
2023-01-20T09:53:41.089Z,30.40
2023-01-20T09:56:16.677Z,32.50
2023-01-20T09:58:51.898Z,31.67
2023-01-20T10:01:24.814Z,31.53
2023-01-20T10:03:57.931Z,30.37
2023-01-20T10:06:31.407Z,30.70
2023-01-20T10:09:06.455Z,30.27
2023-01-20T10:11:40.227Z,29.57
2023-01-20T10:14:16.476Z,28.17
2023-01-20T10:16:53.011Z,29.30
2023-01-20T10:19:28.265Z,29.60
2023-01-20T10:22:06.582Z,29.13
2023-01-20T10:24:40.376Z,28.93
2023-01-20T10:27:10.649Z,28.33
2023-01-20T10:29:40.757Z,28.20
2023-01-20T10:32:15.950Z,29.97
2023-01-20T10:34:48.433Z,28.73
2023-01-20T10:37:17.443Z,28.50
2023-01-20T10:39:51.666Z,31.40
2023-01-20T10:42:23.104Z,31.47
2023-01-20T10:44:53.636Z,31.90
2023-01-20T10:47:47.040Z,29.67
2023-01-20T10:50:37.544Z,28.17
2023-01-20T10:53:22.848Z,30.57
2023-01-20T10:56:03.841Z,30.33
2023-01-20T10:58:40.009Z,31.87
2023-01-20T11:01:09.849Z,31.47
2023-01-20T11:03:43.028Z,28.80
2023-01-20T11:06:19.916Z,26.80
2023-01-20T11:08:48.763Z,25.57
2023-01-20T11:11:20.223Z,25.73
2023-01-20T11:13:52.035Z,27.27
2023-01-20T11:16:26.020Z,27.50
2023-01-20T11:19:03.088Z,21.53
2023-01-20T11:21:38.662Z,21.63
2023-01-20T11:24:33.217Z,29.80
2023-01-20T11:27:06.877Z,30.20
2023-01-20T11:29:43.527Z,27.20
2023-01-20T11:32:33.939Z,28.17
2023-01-20T11:35:13.396Z,24.23
2023-01-20T11:37:42.182Z,26.63
2023-01-20T11:40:24.003Z,36.17
2023-01-20T11:42:53.714Z,22.40
2023-01-20T11:45:31.384Z,22.43
2023-01-20T11:48:05.912Z,22.13
2023-01-20T11:50:39.750Z,22.60
2023-01-20T11:53:20.176Z,25.80
2023-01-20T11:55:52.490Z,30.93
2023-01-20T11:58:23.528Z,26.10
2023-01-20T12:01:02.564Z,22.73
2023-01-20T12:03:54.205Z,30.47
2023-01-20T12:06:27.388Z,37.17
2023-01-20T12:09:04.355Z,26.43
2023-01-20T12:11:37.222Z,33.20
2023-01-20T12:14:23.465Z,33.73
2023-01-20T12:17:01.585Z,33.40
2023-01-20T12:19:37.127Z,32.07
2023-01-20T12:22:14.654Z,28.43
2023-01-20T12:25:10.719Z,31.00
2023-01-20T12:27:53.239Z,29.13
2023-01-20T12:30:38.653Z,32.03
2023-01-20T12:33:25.060Z,31.50
2023-01-20T12:36:30.090Z,26.73
2023-01-20T12:39:28.590Z,25.50
2023-01-20T12:42:45.064Z,26.87
2023-01-20T12:45:28.770Z,24.67
2023-01-20T12:48:10.438Z,26.50
2023-01-20T12:50:54.353Z,25.30
2023-01-20T12:53:43.797Z,24.17
2023-01-20T12:56:23.296Z,24.70
2023-01-20T12:59:02.771Z,25.13
2023-01-20T13:01:47.351Z,26.33
2023-01-20T13:04:42.927Z,25.87
2023-01-20T13:07:29.264Z,24.43
2023-01-20T13:10:12.706Z,23.57
2023-01-20T13:12:51.893Z,22.90
2023-01-20T13:15:26.532Z,21.07
2023-01-20T13:18:22.807Z,23.07
2023-01-20T13:20:54.481Z,22.30
2023-01-20T13:23:29.678Z,20.40
2023-01-20T13:26:00.342Z,22.00
2023-01-20T13:28:31.625Z,21.20
2023-01-20T13:31:01.606Z,21.23
2023-01-20T13:33:38.426Z,20.40
2023-01-20T13:36:24.919Z,21.53
2023-01-20T13:39:34.037Z,20.13
2023-01-20T13:42:03.946Z,20.53
2023-01-20T13:44:36.568Z,22.43
2023-01-20T13:47:08.932Z,24.27
2023-01-20T13:49:53.584Z,21.97
2023-01-20T13:52:52.087Z,41.27
2023-01-20T13:55:32.597Z,20.83
2023-01-20T13:58:01.225Z,19.10
2023-01-20T14:00:33.991Z,19.40
2023-01-20T14:03:19.241Z,19.43
2023-01-20T14:05:52.184Z,19.20
2023-01-20T14:08:23.254Z,20.03
2023-01-20T14:11:04.141Z,19.10
2023-01-20T14:13:33.000Z,19.73
2023-01-20T14:16:01.656Z,19.83
2023-01-20T14:18:32.739Z,27.00
2023-01-20T14:21:05.957Z,18.87
2023-01-20T14:23:39.671Z,25.63
2023-01-20T14:26:12.358Z,27.37
2023-01-20T14:28:49.507Z,19.10
2023-01-20T14:31:24.456Z,19.00
2023-01-20T14:33:58.839Z,14.70
2023-01-20T14:36:31.780Z,19.33
2023-01-20T14:39:04.120Z,14.13
2023-01-20T14:41:48.899Z,18.50
2023-01-20T14:44:20.524Z,16.37
2023-01-20T14:46:54.429Z,38.10
2023-01-20T14:49:26.097Z,25.30
2023-01-20T14:51:55.173Z,17.07
2023-01-20T14:54:43.271Z,14.97
2023-01-20T14:57:26.017Z,16.53
2023-01-20T15:00:17.756Z,15.33
2023-01-20T15:03:04.951Z,13.93
2023-01-20T15:05:44.715Z,12.83
2023-01-20T15:08:56.707Z,13.27
2023-01-20T15:11:31.647Z,13.40
2023-01-20T15:14:14.828Z,13.67
2023-01-20T15:16:50.031Z,16.13
2023-01-20T15:19:33.752Z,32.80
2023-01-20T15:22:23.869Z,17.33
2023-01-20T15:24:53.363Z,13.50
2023-01-20T15:27:31.702Z,12.10
2023-01-20T15:30:21.520Z,11.17
2023-01-20T15:32:51.065Z,11.00
2023-01-20T15:35:23.064Z,12.20
2023-01-20T15:37:52.730Z,10.63
2023-01-20T15:40:23.171Z,12.23
2023-01-20T15:42:53.693Z,10.50
2023-01-20T15:45:26.023Z,10.27
2023-01-20T15:47:54.837Z,9.23
2023-01-20T15:50:26.957Z,9.07
2023-01-20T15:52:55.961Z,8.43
2023-01-20T15:55:25.038Z,7.77
2023-01-20T15:57:54.644Z,9.23
2023-01-20T16:00:28.893Z,8.50
2023-01-20T16:02:57.824Z,8.70
2023-01-20T16:05:26.726Z,8.73
2023-01-20T16:07:55.426Z,8.63
2023-01-20T16:10:24.159Z,8.53
2023-01-20T16:12:53.231Z,8.77
2023-01-20T16:15:23.895Z,8.60
2023-01-20T16:17:54.257Z,8.40
2023-01-20T16:20:26.692Z,7.50
2023-01-20T16:22:56.917Z,9.43
2023-01-20T16:25:26.037Z,8.97
2023-01-20T16:27:54.749Z,10.10
2023-01-20T16:30:27.791Z,9.43
2023-01-20T16:32:57.009Z,9.33
2023-01-20T16:35:28.791Z,11.57
2023-01-20T16:38:05.208Z,15.93
2023-01-20T16:40:34.028Z,16.50
2023-01-20T16:43:03.352Z,10.67
2023-01-20T16:45:34.800Z,10.80
2023-01-20T16:48:04.765Z,10.33
2023-01-20T16:50:33.491Z,10.63
2023-01-20T16:53:02.355Z,9.83
2023-01-20T16:55:34.705Z,12.27
2023-01-20T16:58:03.570Z,12.90
2023-01-20T17:00:34.272Z,11.17
2023-01-20T17:03:05.498Z,12.47
2023-01-20T17:05:34.746Z,14.80
2023-01-20T17:08:03.925Z,14.30
2023-01-20T17:10:33.989Z,15.60
2023-01-20T17:13:03.289Z,15.00
2023-01-20T17:15:33.481Z,15.53
2023-01-20T17:18:02.242Z,14.93
2023-01-20T17:20:32.936Z,14.90
2023-01-20T17:23:02.078Z,15.07
2023-01-20T17:25:30.924Z,15.13
2023-01-20T17:28:01.748Z,15.27
2023-01-20T17:30:31.233Z,15.30
2023-01-20T17:33:01.548Z,16.13
2023-01-20T17:35:30.260Z,14.93
2023-01-20T17:37:59.916Z,15.17
2023-01-20T17:40:29.567Z,13.80
2023-01-20T17:43:00.907Z,16.30
2023-01-20T17:45:32.232Z,16.17
2023-01-20T17:48:04.603Z,16.37
2023-01-20T17:50:34.883Z,25.07
2023-01-20T17:53:03.920Z,24.73
2023-01-20T17:55:32.815Z,46.03
2023-01-20T17:58:01.642Z,53.27
2023-01-20T18:00:30.443Z,47.70
2023-01-20T18:02:59.392Z,19.23
2023-01-20T18:05:30.653Z,39.70
2023-01-20T18:07:59.363Z,28.10
2023-01-20T18:10:28.161Z,33.53
2023-01-20T18:12:57.997Z,20.63
2023-01-20T18:15:26.916Z,19.57
2023-01-20T18:17:55.769Z,23.93
2023-01-20T18:20:25.065Z,18.63
2023-01-20T18:22:55.121Z,16.47
2023-01-20T18:25:24.093Z,14.33
2023-01-20T18:27:52.859Z,16.63
2023-01-20T18:30:21.965Z,15.83
2023-01-20T18:32:51.223Z,15.90
2023-01-20T18:35:19.912Z,16.60
2023-01-20T18:37:48.619Z,14.50
2023-01-20T18:40:19.489Z,15.07
2023-01-20T18:42:48.174Z,12.93
2023-01-20T18:45:17.379Z,14.60
2023-01-20T18:47:46.273Z,13.77
2023-01-20T18:50:16.696Z,13.73
2023-01-20T18:52:45.783Z,14.23
2023-01-20T18:55:14.645Z,14.00
2023-01-20T18:57:44.961Z,14.83
2023-01-20T19:00:15.045Z,14.47
2023-01-20T19:02:44.295Z,15.80
2023-01-20T19:05:13.351Z,21.63
2023-01-20T19:07:43.294Z,52.13
2023-01-20T19:10:12.887Z,31.43
2023-01-20T19:12:43.404Z,17.60
2023-01-20T19:15:13.875Z,16.13
2023-01-20T19:17:43.230Z,16.60
2023-01-20T19:20:13.664Z,14.17
2023-01-20T19:22:42.730Z,13.20
2023-01-20T19:25:14.375Z,17.43
2023-01-20T19:27:43.399Z,17.37
2023-01-20T19:30:24.395Z,16.37
2023-01-20T19:32:53.818Z,16.73
2023-01-20T19:35:22.684Z,15.00
2023-01-20T19:37:52.483Z,14.90
2023-01-20T19:40:21.950Z,17.67
2023-01-20T19:42:52.724Z,15.37
2023-01-20T19:45:25.457Z,17.07
2023-01-20T19:47:55.793Z,23.10
2023-01-20T19:50:27.643Z,24.17
2023-01-20T19:52:56.448Z,22.07
2023-01-20T19:55:29.497Z,23.30
2023-01-20T19:57:58.359Z,20.10
2023-01-20T20:00:29.364Z,22.57
2023-01-20T20:02:58.209Z,25.63
2023-01-20T20:05:27.514Z,21.30
2023-01-20T20:07:56.385Z,54.57
2023-01-20T20:10:25.187Z,25.70
2023-01-20T20:12:53.808Z,20.70
2023-01-20T20:15:22.561Z,24.50
2023-01-20T20:17:55.894Z,33.40
2023-01-20T20:20:25.242Z,36.40
2023-01-20T20:22:54.031Z,31.50
2023-01-20T20:25:22.686Z,38.40
2023-01-20T20:27:52.742Z,33.47
2023-01-20T20:30:24.143Z,23.63
2023-01-20T20:32:54.470Z,30.33
2023-01-20T20:35:23.216Z,30.70
2023-01-20T20:37:52.270Z,25.50
2023-01-20T20:40:21.342Z,26.77
2023-01-20T20:42:50.156Z,30.20
2023-01-20T20:45:19.872Z,29.93
2023-01-20T20:47:48.769Z,25.53
2023-01-20T20:50:19.812Z,24.10
2023-01-20T20:52:48.660Z,21.70
2023-01-20T20:55:20.774Z,18.97
2023-01-20T20:57:49.647Z,21.70
2023-01-20T21:00:23.698Z,18.27
2023-01-20T21:02:53.952Z,23.80
2023-01-20T21:05:24.383Z,20.33
2023-01-20T21:07:53.539Z,18.13
2023-01-20T21:10:25.739Z,18.30
2023-01-20T21:12:55.239Z,18.00
2023-01-20T21:15:24.222Z,15.83
2023-01-20T21:17:53.013Z,17.10
2023-01-20T21:20:25.326Z,14.60
2023-01-20T21:22:54.193Z,14.93
2023-01-20T21:25:25.192Z,15.40
2023-01-20T21:27:54.075Z,16.97
2023-01-20T21:30:23.027Z,16.77
2023-01-20T21:32:54.222Z,17.50
2023-01-20T21:35:27.662Z,19.40
2023-01-20T21:37:59.223Z,16.97
2023-01-20T21:40:28.073Z,17.13
2023-01-20T21:43:17.490Z,15.77
2023-01-20T21:45:51.672Z,16.37
2023-01-20T21:48:37.959Z,16.57
2023-01-20T21:51:27.752Z,16.67
2023-01-20T21:53:57.009Z,18.37
2023-01-20T21:56:25.667Z,15.57
2023-01-20T21:58:54.580Z,15.43
2023-01-20T22:01:23.567Z,16.43
2023-01-20T22:03:52.695Z,16.67
2023-01-20T22:06:22.893Z,17.23
2023-01-20T22:08:51.915Z,18.60
2023-01-20T22:11:20.739Z,16.53
2023-01-20T22:13:49.617Z,18.43
2023-01-20T22:16:23.908Z,18.33
2023-01-20T22:18:53.864Z,23.20
2023-01-20T22:21:25.759Z,22.70
2023-01-20T22:23:57.549Z,22.13
2023-01-20T22:26:28.216Z,19.40
2023-01-20T22:28:57.004Z,19.83
2023-01-20T22:31:28.090Z,19.03
2023-01-20T22:33:59.334Z,21.90
2023-01-20T22:36:30.189Z,19.33
2023-01-20T22:39:01.297Z,19.93
2023-01-20T22:41:30.038Z,18.87
2023-01-20T22:43:59.070Z,16.47
2023-01-20T22:46:29.680Z,17.43
2023-01-20T22:49:00.973Z,17.70
2023-01-20T22:51:32.403Z,17.67
2023-01-20T22:54:02.875Z,16.40
2023-01-20T22:56:33.084Z,17.70
2023-01-20T22:59:02.473Z,16.53
2023-01-20T23:01:33.662Z,16.73
2023-01-20T23:04:03.889Z,15.83
2023-01-20T23:06:36.094Z,14.83
2023-01-20T23:09:06.786Z,16.23
2023-01-20T23:11:38.467Z,16.73
2023-01-20T23:14:09.591Z,16.97
2023-01-20T23:16:38.293Z,17.43
2023-01-20T23:19:07.454Z,17.67
2023-01-20T23:21:39.051Z,16.77
2023-01-20T23:24:09.130Z,16.10
2023-01-20T23:26:38.251Z,16.77
2023-01-20T23:29:06.900Z,16.13
2023-01-20T23:31:35.763Z,15.37
2023-01-20T23:34:04.767Z,16.40
2023-01-20T23:36:33.798Z,16.13
2023-01-20T23:39:03.815Z,17.20
2023-01-20T23:41:32.512Z,15.93
2023-01-20T23:44:01.093Z,16.27
2023-01-20T23:46:29.871Z,18.13
2023-01-20T23:48:58.545Z,18.03
2023-01-20T23:51:27.613Z,17.37
2023-01-20T23:53:56.907Z,16.23
2023-01-20T23:56:27.164Z,21.83
2023-01-20T23:58:55.975Z,22.20
